ROMMA est une association bénévole à but non lucratif. Votre soutien est indispensable : ADHERER à ROMMA ou FAIRE un DON

Saint-Martin-d'Hères - (38, Isère)

Vallée du Grésivaudan (220 m)   Longitude: 05° 45' 05" E   Latitude: 45° 10' 02" N Station partenaire n°4
 

Détail journalier du     <<     >>

Température Precipitation Humidité Pression Vent Dir Rafale Dir. rafale Ensol.
Heure (°C) (mm) (%) (hPa) (km/h) (km/h) (min)
01:00 15.4085101802N0
02:00 14.4088101900---0
03:00 14.0090102000---0
04:00 13.3091102002NO0
05:00 12.8092102100---0
06:00 12.3093102100---0
07:00 12.0094102100---0
08:00 11.7094102200---0
09:00 11.9095102300---0
10:00 12.8095102300---0
11:00 15.8086102300---10
12:00 20.60621023010NNO60
13:00 22.3056102308NO50
14:00 23.9050102200---40
15:00 24.2050102203ONO40
16:00 24.8051102206SSO40
17:00 26.2049102106SSO60
18:00 23.7062102106S10
19:00 20.4075102205SSE0
20:00 18.90801023010SSE0
21:00 18.0083102302S0
22:00 16.8087102402S0
23:00 15.9089102400---0
minuit 15.1092102400---0

Graphique du 12-10-2018

 

Serveur OMMA